ウィーン の空港の天気 - METARとTAF

ウィーン国際空港 ( LOWW / VIE ) - オーストリア ウィーン
飛行場実況気象(Metar)
観測時間12/08 11:20 CET (12/08 10:20 UTC)
風向・風速東南東 6m/s
視程10km以上
天気現象
なし
気温1℃
湿度75%
気圧1005hPa
METARLOWW 081020Z 12012KT CAVOK 01/M03 Q1005 NOSIG
過去の天気等 Google飛行場航空写真 Wunderground天気予報

過去48時間のMETAR

飛行場予報(TAF)
発表時間: 12/08 09:15 CET (12/08 08:15 UTC)
予報対象時間: 8日10時 CET ~ 9日16時 CET
風向・風速南東 8m/s
視程10km以上
なし
8日11時 CET ~ 8日22時 CET に一時的に
風向・風速南東 10m/s 瞬間風速 15m/s
9日0時 CET ~ 9日2時 CET に徐々に
風向・風速東 3m/s
天気現象弱い雪
全天を覆う雲 雲底高度 370m
9日6時 CET ~ 9日16時 CET に一時的に
風向・風速不定 2m/s
視程1400m
天気現象
全天を覆う雲 鉛直視程 90m
TAF LOWW 080815Z 0809/0915 13015KT CAVOK TX02/0813Z TNM01/0907Z
TEMPO 0810/0821 14020G30KT
BECMG 0823/0901 10006KT -SN OVC012
TEMPO 0905/0915 VRB03KT 1400 SN VV003